Time;durP1;ratioP1;P1;durP2;ratioP2;P2;SDS_P1;SDS_P2;PMS_P1;PMS_P2;Temp;Humidity;BMP_temperature;BMP_pressure;BME280_temperature;BME280_humidity;BME280_pressure;Samples;Min_cycle;Max_cycle;Signal;HPM_P1;HPM_P2
2022/06/06 00:01:16;;;;;;;97.07;39.08;;;16.50;99.90;;;;;;5020514;28;20163;-87
2022/06/06 00:07:00;;;;;;;56.25;30.33;;;16.50;99.90;;;;;;5044971;28;20067;-87
2022/06/06 00:09:27;;;;;;;58.15;31.23;;;16.40;99.90;;;;;;5040270;28;20017;-87
2022/06/06 00:15:14;;;;;;;45.22;27.13;;;16.30;99.90;;;;;;4996037;28;20023;-88
2022/06/06 00:18:27;;;;;;;49.13;26.80;;;16.30;99.90;;;;;;4986155;28;20503;-87
2022/06/06 00:20:59;;;;;;;46.42;26.35;;;16.20;99.90;;;;;;4986324;28;20068;-88
2022/06/06 00:24:03;;;;;;;47.70;26.25;;;16.20;99.90;;;;;;5032348;28;20127;-87
2022/06/06 00:26:30;;;;;;;46.92;25.58;;;16.20;99.90;;;;;;4950574;28;20031;-87
2022/06/06 00:28:59;;;;;;;47.97;26.65;;;16.20;99.90;;;;;;4947011;28;20122;-88
2022/06/06 00:34:49;;;;;;;42.65;23.65;;;16.20;99.90;;;;;;4977040;28;20138;-88
2022/06/06 00:37:45;;;;;;;41.15;22.98;;;16.10;99.90;;;;;;4946206;28;20497;-87
2022/06/06 00:40:11;;;;;;;44.83;23.33;;;16.10;99.90;;;;;;4924252;29;20039;-87
2022/06/06 00:42:46;;;;;;;46.40;23.42;;;16.10;99.90;;;;;;4938168;29;20036;-88
2022/06/06 00:45:56;;;;;;;47.03;24.25;;;16.00;99.90;;;;;;4940789;28;20158;-88
2022/06/06 00:49:03;;;;;;;50.63;24.60;;;16.10;99.90;;;;;;4941023;29;20028;-87
2022/06/06 00:51:35;;;;;;;47.88;25.85;;;16.00;99.90;;;;;;4871342;29;20044;-87
2022/06/06 00:54:15;;;;;;;51.80;26.35;;;16.00;99.90;;;;;;4887615;29;20040;-87
2022/06/06 00:58:08;;;;;;;53.60;25.27;;;16.00;99.90;;;;;;4909898;29;20110;-87
2022/06/06 01:01:05;;;;;;;51.85;25.63;;;16.00;99.90;;;;;;4924991;29;20397;-88
2022/06/06 01:03:41;;;;;;;51.80;24.38;;;16.00;99.90;;;;;;4934394;29;20040;-87
2022/06/06 01:10:14;;;;;;;48.33;23.77;;;16.00;99.90;;;;;;4935779;29;20046;-88
2022/06/06 01:13:09;;;;;;;45.97;22.98;;;16.00;99.90;;;;;;4929073;29;20131;-88
2022/06/06 01:16:10;;;;;;;39.95;21.83;;;16.00;99.90;;;;;;4930733;28;20049;-87
2022/06/06 01:18:59;;;;;;;48.75;23.27;;;16.00;99.90;;;;;;5032860;28;20058;-87
2022/06/06 01:25:45;;;;;;;37.80;21.17;;;15.90;99.90;;;;;;5014980;28;20029;-87
2022/06/06 01:28:47;;;;;;;47.70;22.25;;;15.80;99.90;;;;;;4999896;28;20041;-89
2022/06/06 01:38:10;;;;;;;47.53;22.70;;;15.80;99.90;;;;;;5015891;28;20060;-88
2022/06/06 01:41:13;;;;;;;51.70;24.23;;;15.80;99.90;;;;;;4998926;28;20146;-88
2022/06/06 01:44:13;;;;;;;57.15;24.90;;;15.80;99.90;;;;;;4986676;28;20484;-86
2022/06/06 01:46:59;;;;;;;48.83;24.92;;;15.80;99.90;;;;;;4961862;28;20066;-84
2022/06/06 01:49:51;;;;;;;50.28;24.05;;;15.80;99.90;;;;;;4949024;28;20042;-85
2022/06/06 01:52:23;;;;;;;50.78;24.42;;;15.80;99.90;;;;;;4984488;28;20040;-84
2022/06/06 01:55:21;;;;;;;45.58;23.58;;;15.80;99.90;;;;;;4999311;28;20048;-85
2022/06/06 02:01:17;;;;;;;48.90;24.55;;;15.80;99.90;;;;;;4964121;28;20528;-85
2022/06/06 02:03:43;;;;;;;53.05;23.95;;;15.80;99.90;;;;;;5031671;28;20087;-85
2022/06/06 02:06:13;;;;;;;48.10;23.63;;;15.80;99.90;;;;;;5038279;28;20418;-85
2022/06/06 02:09:04;;;;;;;47.15;24.17;;;15.80;99.90;;;;;;5035857;28;20113;-86
2022/06/06 02:11:56;;;;;;;52.75;24.65;;;15.80;99.90;;;;;;5037798;28;20469;-85
2022/06/06 02:14:41;;;;;;;51.45;25.35;;;15.90;99.90;;;;;;5012115;28;20026;-86
2022/06/06 02:17:19;;;;;;;57.22;27.35;;;15.90;99.90;;;;;;5049593;28;20038;-86
2022/06/06 02:19:57;;;;;;;58.08;27.42;;;15.90;99.90;;;;;;5004936;28;20488;-86
2022/06/06 02:25:57;;;;;;;60.83;28.58;;;15.90;99.90;;;;;;5050002;28;20032;-86
2022/06/06 02:28:57;;;;;;;60.50;27.02;;;15.90;99.90;;;;;;5034806;28;20120;-85
2022/06/06 02:31:37;;;;;;;56.65;27.85;;;15.90;99.90;;;;;;4973409;28;20421;-85
2022/06/06 02:37:31;;;;;;;51.28;25.30;;;15.90;99.90;;;;;;4995126;28;20512;-86
2022/06/06 02:44:22;;;;;;;53.42;26.63;;;15.90;99.90;;;;;;4998731;28;20021;-88
2022/06/06 02:49:40;;;;;;;48.00;25.50;;;15.90;99.90;;;;;;4980014;28;20446;-87
2022/06/06 02:52:26;;;;;;;61.45;27.45;;;15.90;99.90;;;;;;4996986;28;20117;-87
2022/06/06 02:54:58;;;;;;;49.83;25.60;;;15.90;99.90;;;;;;4992194;28;20597;-86
2022/06/06 02:58:04;;;;;;;59.63;27.52;;;15.90;99.90;;;;;;4980947;28;20084;-88
2022/06/06 03:00:41;;;;;;;53.22;26.52;;;15.90;99.90;;;;;;4996840;28;20038;-86
2022/06/06 03:03:31;;;;;;;51.70;25.48;;;15.80;99.90;;;;;;4972575;28;20129;-87
2022/06/06 03:06:47;;;;;;;57.93;27.67;;;15.80;99.90;;;;;;4991504;28;20037;-87
2022/06/06 03:09:43;;;;;;;54.42;26.75;;;15.80;99.90;;;;;;4997132;28;20076;-86
2022/06/06 03:13:02;;;;;;;58.67;26.60;;;15.90;99.90;;;;;;5014032;28;20036;-86
2022/06/06 03:22:44;;;;;;;63.92;27.85;;;15.90;99.90;;;;;;5075561;22;20061;-88
2022/06/06 03:25:36;;;;;;;55.53;26.55;;;15.80;99.90;;;;;;5015712;28;20026;-85
2022/06/06 03:28:39;;;;;;;51.60;25.52;;;15.90;99.90;;;;;;5027014;28;20029;-85
2022/06/06 03:35:09;;;;;;;46.45;24.58;;;15.80;99.90;;;;;;5034572;28;20075;-87
2022/06/06 03:41:25;;;;;;;46.33;23.13;;;15.90;99.90;;;;;;5021056;28;20520;-88
2022/06/06 03:44:29;;;;;;;47.35;22.38;;;15.90;99.90;;;;;;5022570;28;20471;-87
2022/06/06 03:47:29;;;;;;;48.97;22.63;;;15.90;99.90;;;;;;5029861;28;20030;-86
2022/06/06 03:54:13;;;;;;;45.63;22.55;;;15.90;99.90;;;;;;5030284;28;20029;-87
2022/06/06 03:57:31;;;;;;;40.55;21.08;;;15.90;99.90;;;;;;4949047;28;20059;-87
2022/06/06 04:00:49;;;;;;;;;;;;;;;;;;;;;
2022/06/06 04:03:18;;;;;;;39.08;20.05;;;15.90;99.90;;;;;;5029792;28;20378;-87
2022/06/06 04:09:06;;;;;;;37.58;20.05;;;15.90;99.90;;;;;;5034785;28;20098;-88
2022/06/06 04:11:53;;;;;;;42.75;21.52;;;15.90;99.90;;;;;;5029583;28;20022;-89
2022/06/06 04:15:02;;;;;;;45.13;23.27;;;15.90;99.90;;;;;;5030393;28;20030;-88
2022/06/06 04:17:46;;;;;;;45.92;22.55;;;15.90;99.90;;;;;;5030165;28;20030;-89
2022/06/06 04:20:50;;;;;;;52.65;26.42;;;15.90;99.90;;;;;;5030339;28;20395;-89
2022/06/06 04:24:12;;;;;;;59.08;30.40;;;15.90;99.90;;;;;;5014089;28;20072;-90
2022/06/06 04:34:13;;;;;;;59.78;31.50;;;15.80;99.90;;;;;;4969886;28;20030;-88
2022/06/06 04:37:16;;;;;;;69.57;33.85;;;15.70;99.90;;;;;;4956268;28;20044;-89
2022/06/06 04:40:55;;;;;;;68.43;33.38;;;15.70;99.90;;;;;;4975036;28;20035;-88
2022/06/06 04:44:07;;;;;;;56.50;32.03;;;15.70;99.90;;;;;;5010267;28;20037;-89
2022/06/06 04:47:11;;;;;;;45.75;27.20;;;15.60;99.90;;;;;;5019878;28;20124;-87
2022/06/06 04:50:32;;;;;;;;;;;;;;;;;;;;;
2022/06/06 04:56:23;;;;;;;;;;;;;;;;;;;;;
2022/06/06 04:59:25;;;;;;;46.78;28.38;;;15.50;99.90;;;;;;5022760;28;20544;-87
2022/06/06 05:02:21;;;;;;;49.20;29.40;;;15.50;99.90;;;;;;5005893;28;20034;-87
2022/06/06 05:04:59;;;;;;;48.67;29.17;;;15.50;99.90;;;;;;5014027;28;20273;-87
2022/06/06 05:07:56;;;;;;;48.67;29.77;;;15.50;99.90;;;;;;4983319;28;20022;-87
2022/06/06 05:10:59;;;;;;;48.45;30.20;;;15.50;99.90;;;;;;5006264;28;20032;-87
2022/06/06 05:14:11;;;;;;;46.00;29.73;;;15.40;99.90;;;;;;5018890;28;20462;-87
2022/06/06 05:17:05;;;;;;;46.33;29.60;;;15.40;99.90;;;;;;5019865;28;20044;-87
2022/06/06 05:19:58;;;;;;;43.92;28.08;;;15.40;99.90;;;;;;5019372;28;20481;-87
2022/06/06 05:23:02;;;;;;;41.03;27.00;;;15.40;99.90;;;;;;5042066;28;20106;-87
2022/06/06 05:25:55;;;;;;;46.08;28.60;;;15.40;99.90;;;;;;5035439;28;20045;-87
2022/06/06 05:29:03;;;;;;;42.63;28.08;;;15.30;99.90;;;;;;5034834;28;20026;-87
2022/06/06 05:31:54;;;;;;;37.45;24.27;;;15.30;99.90;;;;;;5027746;28;20029;-87
2022/06/06 05:38:04;;;;;;;41.72;24.65;;;15.30;99.90;;;;;;5035436;28;20485;-87
2022/06/06 05:44:56;;;;;;;33.78;21.27;;;15.30;99.90;;;;;;4981078;28;20031;-86
2022/06/06 05:51:18;;;;;;;24.92;17.17;;;15.30;99.90;;;;;;4995015;28;20396;-87
2022/06/06 05:54:29;;;;;;;23.23;14.73;;;15.30;99.90;;;;;;4991043;28;20522;-87
2022/06/06 06:00:35;;;;;;;20.38;12.20;;;15.30;99.90;;;;;;4994868;28;20053;-87
2022/06/06 06:04:12;;;;;;;19.25;12.48;;;15.30;99.90;;;;;;5000143;28;20037;-87
2022/06/06 06:10:00;;;;;;;20.02;12.70;;;15.30;99.90;;;;;;5018067;28;20386;-87
2022/06/06 06:13:03;;;;;;;18.83;12.15;;;15.30;99.90;;;;;;5036123;28;20025;-86
2022/06/06 06:18:48;;;;;;;;;;;15.20;99.90;;;;;;5000143;28;20046;-86
2022/06/06 06:25:16;;;;;;;;;;;;;;;;;;;;;
2022/06/06 06:28:10;;;;;;;20.15;13.63;;;15.20;99.90;;;;;;4897956;29;20082;-85
2022/06/06 06:31:19;;;;;;;24.03;15.83;;;15.30;99.90;;;;;;4882144;29;20036;-86
2022/06/06 06:40:39;;;;;;;;;;;15.30;99.90;;;;;;4885968;29;20040;-85
2022/06/06 06:44:11;;;;;;;22.23;13.18;;;15.30;99.90;;;;;;4897770;29;20329;-85
2022/06/06 06:47:28;;;;;;;12.10;8.52;;;15.30;99.90;;;;;;4899019;29;20398;-86
2022/06/06 06:50:24;;;;;;;12.80;8.77;;;15.30;99.90;;;;;;5020961;28;20532;-86
2022/06/06 06:53:11;;;;;;;12.20;8.85;;;15.30;99.90;;;;;;5051154;28;20037;-86
2022/06/06 06:59:55;;;;;;;18.08;9.32;;;15.40;99.90;;;;;;4985356;28;20129;-86
2022/06/06 07:09:30;;;;;;;15.10;9.77;;;15.40;99.90;;;;;;4937766;29;19942;-85
2022/06/06 07:19:17;;;;;;;14.63;10.10;;;15.50;99.90;;;;;;5048490;28;20040;-86
2022/06/06 07:26:00;;;;;;;11.32;8.75;;;15.60;99.90;;;;;;5027396;28;20049;-86
2022/06/06 07:29:22;;;;;;;13.98;9.15;;;15.70;99.90;;;;;;5031268;28;20478;-84
2022/06/06 07:32:23;;;;;;;11.75;8.60;;;15.70;99.90;;;;;;5027898;28;20368;-85
2022/06/06 07:35:31;;;;;;;15.68;8.93;;;15.80;99.90;;;;;;5048957;28;20387;-86
2022/06/06 07:37:59;;;;;;;11.75;7.90;;;15.90;99.90;;;;;;5043067;28;20028;-85
2022/06/06 07:40:46;;;;;;;14.02;7.93;;;16.00;99.90;;;;;;5030283;28;20407;-85
2022/06/06 07:43:57;;;;;;;10.32;6.53;;;16.10;99.90;;;;;;5046201;28;20025;-85
2022/06/06 07:47:06;;;;;;;;;;;16.10;99.90;;;;;;5032991;28;20030;-85
2022/06/06 07:50:09;;;;;;;11.38;6.28;;;16.20;99.90;;;;;;5032583;28;20309;-85
2022/06/06 07:53:14;;;;;;;9.07;4.68;;;16.20;99.90;;;;;;5027204;28;20367;-85
2022/06/06 07:56:33;;;;;;;8.13;4.03;;;16.30;99.90;;;;;;5021204;28;20494;-84
2022/06/06 07:59:26;;;;;;;8.40;4.18;;;16.30;99.90;;;;;;5030075;28;20544;-85
2022/06/06 08:02:32;;;;;;;6.03;3.47;;;16.40;99.90;;;;;;5026089;28;20125;-85
2022/06/06 08:05:23;;;;;;;4.88;2.80;;;16.40;99.90;;;;;;5024818;28;20022;-85
2022/06/06 08:08:43;;;;;;;3.42;1.98;;;16.50;99.90;;;;;;5026373;28;20033;-84
2022/06/06 08:11:53;;;;;;;5.05;2.22;;;16.40;99.90;;;;;;5017546;28;20121;-85
2022/06/06 08:14:44;;;;;;;4.70;2.40;;;16.40;99.90;;;;;;5036175;28;20033;-85
2022/06/06 08:21:18;;;;;;;6.85;2.92;;;16.50;99.90;;;;;;5036603;28;20100;-85
2022/06/06 08:26:41;;;;;;;7.65;3.47;;;16.60;99.90;;;;;;5034622;28;20044;-85
2022/06/06 08:29:12;;;;;;;5.22;3.08;;;16.60;99.90;;;;;;5034566;28;20467;-85
2022/06/06 08:31:52;;;;;;;6.45;3.58;;;16.70;99.90;;;;;;5036211;28;20029;-85
2022/06/06 08:34:37;;;;;;;6.60;3.03;;;16.70;99.90;;;;;;5036577;28;20481;-86
2022/06/06 08:37:22;;;;;;;5.18;2.85;;;16.70;99.90;;;;;;5020686;28;20091;-85
2022/06/06 08:44:00;;;;;;;5.63;3.50;;;16.80;99.90;;;;;;5034923;28;20039;-86
2022/06/06 08:50:53;;;;;;;4.50;2.55;;;17.00;99.90;;;;;;5034928;28;20056;-85
2022/06/06 08:53:30;;;;;;;4.32;2.22;;;17.10;99.90;;;;;;5031824;28;20042;-87
2022/06/06 08:56:22;;;;;;;3.78;2.13;;;17.10;99.90;;;;;;5026126;28;20108;-86
2022/06/06 08:59:46;;;;;;;4.13;2.00;;;17.20;99.90;;;;;;5034953;28;20395;-86
2022/06/06 09:09:49;;;;;;;3.42;2.08;;;17.30;99.90;;;;;;5026274;28;20111;-86
2022/06/06 09:12:52;;;;;;;6.40;2.20;;;17.30;99.90;;;;;;5023197;28;20074;-86
2022/06/06 09:15:45;;;;;;;3.90;1.92;;;17.40;99.90;;;;;;5035064;28;20116;-85
2022/06/06 09:18:21;;;;;;;3.83;2.10;;;17.50;99.90;;;;;;5033193;28;20018;-86
2022/06/06 09:21:32;;;;;;;2.63;1.63;;;17.50;99.90;;;;;;5033983;28;20018;-86
2022/06/06 09:24:22;;;;;;;3.10;1.60;;;17.60;99.90;;;;;;4991400;28;20095;-83
2022/06/06 09:27:25;;;;;;;6.18;1.90;;;17.70;99.90;;;;;;5029975;28;20053;-83
2022/06/06 09:34:09;;;;;;;3.10;1.50;;;17.80;99.90;;;;;;5035843;28;20097;-86
2022/06/06 09:36:53;;;;;;;7.50;1.92;;;17.80;99.90;;;;;;5035112;28;20029;-83
2022/06/06 09:39:43;;;;;;;1.85;1.40;;;17.70;99.90;;;;;;5051064;28;20473;-86
2022/06/06 09:42:47;;;;;;;5.13;1.42;;;17.70;99.90;;;;;;5035180;28;20148;-87
2022/06/06 09:45:50;;;;;;;3.30;1.70;;;17.70;99.90;;;;;;5029676;28;20065;-85
2022/06/06 09:48:53;;;;;;;3.28;1.60;;;17.60;99.90;;;;;;5015833;28;20022;-86
2022/06/06 09:51:56;;;;;;;3.17;2.08;;;17.60;99.90;;;;;;5025097;28;20033;-83
2022/06/06 10:01:37;;;;;;;5.38;2.33;;;17.70;99.90;;;;;;5032214;28;20052;-82
2022/06/06 10:04:29;;;;;;;2.55;2.13;;;17.70;99.90;;;;;;5047021;28;20032;-83
2022/06/06 10:07:06;;;;;;;4.30;2.10;;;17.80;99.90;;;;;;5032506;28;20120;-82
2022/06/06 10:10:03;;;;;;;4.20;1.83;;;17.80;99.90;;;;;;5030404;28;20026;-82
2022/06/06 10:12:32;;;;;;;3.17;2.15;;;17.90;99.90;;;;;;5007355;28;20038;-82
2022/06/06 10:15:29;;;;;;;1.90;1.70;;;18.00;99.90;;;;;;5012241;28;20017;-82
2022/06/06 10:18:26;;;;;;;4.63;1.83;;;18.10;99.90;;;;;;5040408;28;20025;-83
2022/06/06 10:21:17;;;;;;;5.63;1.92;;;18.10;99.90;;;;;;5039405;28;20475;-83
2022/06/06 10:24:30;;;;;;;6.40;1.90;;;18.20;99.90;;;;;;5007940;28;20344;-84
2022/06/06 10:27:13;;;;;;;4.32;1.58;;;18.30;99.70;;;;;;5008751;28;20121;-84
2022/06/06 10:30:45;;;;;;;4.05;1.80;;;18.30;99.70;;;;;;5013876;28;20018;-85
2022/06/06 10:33:48;;;;;;;3.95;2.10;;;18.40;99.30;;;;;;4936926;29;20023;-86
2022/06/06 10:36:54;;;;;;;5.65;1.95;;;18.40;99.50;;;;;;4939218;29;20039;-83
2022/06/06 10:39:55;;;;;;;5.10;2.33;;;18.40;99.80;;;;;;5010818;28;20037;-82
2022/06/06 10:43:23;;;;;;;5.00;2.58;;;18.40;98.50;;;;;;4988530;28;20076;-84
2022/06/06 10:46:10;;;;;;;6.18;3.15;;;18.40;99.90;;;;;;4935698;29;20067;-83
2022/06/06 10:48:58;;;;;;;5.20;3.15;;;18.50;99.90;;;;;;4927426;29;20031;-83
2022/06/06 10:51:42;;;;;;;6.85;3.25;;;18.50;99.90;;;;;;4997362;28;20047;-84
2022/06/06 10:54:26;;;;;;;5.78;2.80;;;18.60;99.90;;;;;;4993725;28;20040;-85
2022/06/06 10:57:29;;;;;;;10.32;3.17;;;18.70;99.60;;;;;;5001104;28;20026;-88
2022/06/06 11:00:33;;;;;;;5.32;3.17;;;18.60;99.30;;;;;;5021558;28;20032;-88
2022/06/06 11:03:36;;;;;;;4.80;2.97;;;18.60;98.70;;;;;;5012401;28;20108;-88
2022/06/06 11:06:30;;;;;;;10.65;3.75;;;18.50;98.80;;;;;;5011566;28;20081;-88
2022/06/06 11:09:08;;;;;;;6.55;3.55;;;18.40;99.90;;;;;;4995461;28;20018;-85
2022/06/06 11:12:01;;;;;;;6.35;3.28;;;18.40;99.90;;;;;;4998239;28;20058;-84
2022/06/06 11:14:37;;;;;;;10.85;4.18;;;18.30;99.90;;;;;;4991597;28;20082;-86
2022/06/06 11:17:40;;;;;;;8.27;3.45;;;18.20;99.90;;;;;;4996317;28;20018;-86
2022/06/06 11:20:34;;;;;;;5.53;3.17;;;18.20;99.90;;;;;;5013648;28;20028;-86
2022/06/06 11:23:38;;;;;;;5.05;3.13;;;18.10;99.90;;;;;;5013226;28;20065;-85
2022/06/06 11:26:25;;;;;;;5.47;3.15;;;18.00;99.90;;;;;;4999165;28;20038;-85
2022/06/06 11:29:16;;;;;;;4.30;3.20;;;18.00;99.90;;;;;;5030200;28;20025;-85
2022/06/06 11:35:29;;;;;;;4.95;3.08;;;18.10;99.90;;;;;;5053574;28;20028;-85
2022/06/06 11:38:41;;;;;;;9.10;3.33;;;18.10;99.90;;;;;;5038259;28;20021;-84
2022/06/06 11:41:19;;;;;;;3.78;2.15;;;18.20;99.90;;;;;;5034771;28;20030;-85
2022/06/06 11:44:06;;;;;;;3.45;2.10;;;18.30;99.90;;;;;;5035406;28;20566;-85
2022/06/06 11:47:02;;;;;;;2.90;1.70;;;18.40;99.90;;;;;;5032850;28;20086;-85
2022/06/06 11:49:43;;;;;;;3.78;1.90;;;18.40;99.90;;;;;;5033952;28;20029;-85
2022/06/06 11:52:39;;;;;;;3.40;2.03;;;18.40;99.90;;;;;;5034548;28;20048;-85
2022/06/06 11:55:20;;;;;;;2.75;1.80;;;18.50;99.90;;;;;;5052294;28;20029;-85
2022/06/06 11:58:04;;;;;;;;;;;18.60;99.90;;;;;;5052805;28;20024;-85
2022/06/06 12:00:49;;;;;;;3.33;1.60;;;18.70;99.90;;;;;;5034163;28;20074;-84
2022/06/06 12:03:52;;;;;;;2.70;1.40;;;18.80;99.90;;;;;;5052672;28;20036;-84
2022/06/06 12:06:50;;;;;;;3.58;1.40;;;18.80;99.90;;;;;;5052003;28;20064;-84
2022/06/06 12:09:53;;;;;;;3.72;1.90;;;18.90;99.90;;;;;;5052478;28;20032;-85
2022/06/06 12:12:37;;;;;;;2.15;1.60;;;18.90;99.90;;;;;;5031993;28;20025;-85
2022/06/06 12:15:36;;;;;;;3.47;1.70;;;18.80;99.90;;;;;;5045980;28;20103;-84
2022/06/06 12:18:25;;;;;;;3.50;1.60;;;18.80;99.90;;;;;;5036199;28;20026;-84
2022/06/06 12:21:32;;;;;;;5.65;1.95;;;18.70;99.90;;;;;;5036003;28;20133;-84
2022/06/06 12:24:19;;;;;;;3.03;1.50;;;18.70;99.20;;;;;;5030501;28;20021;-84
2022/06/06 12:27:17;;;;;;;3.88;1.25;;;18.60;99.20;;;;;;5020661;28;20464;-84
2022/06/06 12:30:07;;;;;;;4.50;1.30;;;18.60;99.10;;;;;;5028243;28;20387;-84
2022/06/06 12:32:58;;;;;;;4.10;1.30;;;18.60;97.80;;;;;;5033238;28;20029;-83
2022/06/06 12:36:01;;;;;;;2.40;1.25;;;18.50;98.70;;;;;;5018388;28;20467;-84
2022/06/06 12:39:01;;;;;;;3.75;1.40;;;18.50;98.50;;;;;;5031762;28;20025;-84
2022/06/06 12:41:58;;;;;;;3.35;1.55;;;18.50;98.90;;;;;;5043046;28;20033;-84
2022/06/06 12:44:50;;;;;;;4.65;2.60;;;18.60;99.50;;;;;;5031214;28;20470;-85
2022/06/06 12:47:30;;;;;;;8.27;3.08;;;18.60;99.90;;;;;;5027034;28;20025;-83
2022/06/06 12:50:14;;;;;;;4.88;2.47;;;18.50;99.90;;;;;;5042406;28;20112;-84
2022/06/06 12:52:59;;;;;;;7.90;2.88;;;18.40;99.90;;;;;;5018920;28;20466;-84
2022/06/06 12:55:43;;;;;;;7.53;2.83;;;18.30;99.90;;;;;;5029620;28;20069;-84
2022/06/06 12:58:22;;;;;;;5.32;2.75;;;18.20;99.90;;;;;;5022608;28;20074;-84
2022/06/06 13:04:17;;;;;;;7.32;2.42;;;18.20;99.90;;;;;;5033948;28;20088;-84
2022/06/06 13:07:02;;;;;;;;;;;18.20;99.90;;;;;;5036056;28;20029;-84
2022/06/06 13:09:50;;;;;;;3.88;1.90;;;18.20;99.90;;;;;;5028778;28;19905;-84
2022/06/06 13:12:54;;;;;;;3.40;1.90;;;18.10;99.90;;;;;;5035938;28;20352;-84
2022/06/06 13:15:37;;;;;;;6.22;1.90;;;18.10;99.90;;;;;;5036032;28;20105;-84
2022/06/06 13:18:41;;;;;;;7.78;1.95;;;18.20;99.90;;;;;;5036050;28;20104;-86
2022/06/06 13:21:45;;;;;;;4.97;1.90;;;18.20;99.90;;;;;;5030718;28;20105;-85
2022/06/06 13:24:47;;;;;;;2.55;1.60;;;18.20;99.90;;;;;;5020634;28;20037;-85
2022/06/06 13:27:16;;;;;;;4.07;1.23;;;18.20;99.90;;;;;;5018569;28;20064;-86
2022/06/06 13:29:49;;;;;;;5.47;1.50;;;18.20;99.90;;;;;;5026351;28;20022;-87
2022/06/06 13:33:00;;;;;;;4.72;1.80;;;18.20;99.90;;;;;;5027981;28;20033;-87
2022/06/06 13:36:03;;;;;;;4.20;1.20;;;18.20;99.90;;;;;;5029801;28;20030;-85
2022/06/06 13:39:06;;;;;;;2.70;1.27;;;18.30;99.90;;;;;;5035904;28;20029;-85
2022/06/06 13:42:10;;;;;;;3.67;1.63;;;18.30;99.90;;;;;;5024867;28;20030;-85
2022/06/06 13:45:14;;;;;;;2.90;1.27;;;18.30;99.90;;;;;;5018680;28;20040;-85
2022/06/06 13:48:07;;;;;;;9.02;1.50;;;18.30;99.90;;;;;;5034749;28;20025;-85
2022/06/06 13:51:02;;;;;;;4.38;1.70;;;18.30;99.90;;;;;;5026762;28;20033;-83
2022/06/06 13:54:05;;;;;;;2.80;1.35;;;18.30;99.90;;;;;;5049638;28;20025;-83
2022/06/06 13:56:38;;;;;;;5.07;1.60;;;18.20;99.90;;;;;;5031510;28;20022;-84
2022/06/06 13:59:28;;;;;;;4.60;1.70;;;18.20;99.90;;;;;;5028715;28;20459;-83
2022/06/06 14:02:13;;;;;;;4.40;1.55;;;18.30;99.90;;;;;;5033525;28;20021;-82
2022/06/06 14:04:38;;;;;;;4.07;1.65;;;18.30;99.90;;;;;;5029815;28;20459;-83
2022/06/06 14:07:23;;;;;;;5.18;1.70;;;18.30;99.90;;;;;;5031925;28;20113;-82
2022/06/06 14:10:05;;;;;;;3.80;1.70;;;18.30;99.90;;;;;;5012502;28;20026;-83
2022/06/06 14:13:02;;;;;;;5.57;1.42;;;18.30;99.90;;;;;;5017196;28;20040;-82
2022/06/06 14:15:29;;;;;;;5.10;1.98;;;18.30;99.90;;;;;;5022665;28;20072;-82
2022/06/06 14:17:59;;;;;;;6.13;1.85;;;18.30;99.90;;;;;;5029413;28;20104;-80
2022/06/06 14:20:41;;;;;;;6.00;2.40;;;18.30;99.90;;;;;;5021499;28;20022;-81
2022/06/06 14:23:35;;;;;;;5.93;2.53;;;18.20;99.90;;;;;;5031040;28;20271;-82
2022/06/06 14:26:13;;;;;;;4.20;2.22;;;18.10;99.90;;;;;;5026478;28;20037;-88
2022/06/06 14:28:41;;;;;;;4.32;2.10;;;17.90;99.90;;;;;;5052451;28;20155;-88
2022/06/06 14:31:41;;;;;;;3.70;2.00;;;17.90;99.90;;;;;;5034241;28;20489;-87
2022/06/06 14:34:20;;;;;;;6.30;2.38;;;17.80;99.90;;;;;;5037094;28;20017;-87
2022/06/06 14:36:47;;;;;;;4.30;2.50;;;17.70;99.90;;;;;;5037024;28;20039;-87
2022/06/06 14:39:24;;;;;;;4.75;2.42;;;17.70;99.90;;;;;;5036063;28;20108;-87
2022/06/06 14:41:50;;;;;;;6.55;2.50;;;17.60;99.90;;;;;;5036753;28;20044;-87
2022/06/06 14:44:38;;;;;;;5.18;2.60;;;17.50;99.90;;;;;;5043229;28;20079;-88
2022/06/06 14:47:12;;;;;;;5.30;3.17;;;17.50;99.90;;;;;;5034837;28;20032;-87
2022/06/06 14:49:42;;;;;;;4.10;2.08;;;17.50;99.90;;;;;;5030597;28;20017;-87
2022/06/06 14:52:20;;;;;;;3.88;2.28;;;17.50;99.90;;;;;;5055101;28;20469;-87
2022/06/06 14:54:50;;;;;;;4.53;2.40;;;17.40;99.90;;;;;;5031754;28;20031;-88
2022/06/06 14:57:15;;;;;;;7.22;3.58;;;17.40;99.90;;;;;;5036728;28;20474;-87
2022/06/06 14:59:45;;;;;;;5.20;2.05;;;17.40;99.90;;;;;;5049738;28;20025;-87
2022/06/06 15:02:22;;;;;;;6.43;2.83;;;17.40;99.90;;;;;;5035030;28;20055;-87
2022/06/06 15:05:13;;;;;;;6.60;2.38;;;17.40;99.90;;;;;;5053534;28;20099;-87
2022/06/06 15:08:05;;;;;;;7.30;2.13;;;17.30;99.90;;;;;;5040263;28;20060;-87
2022/06/06 15:11:00;;;;;;;6.68;2.50;;;17.30;99.90;;;;;;5036597;28;20039;-89
2022/06/06 15:13:26;;;;;;;6.72;2.58;;;17.20;99.90;;;;;;5053976;28;20474;-89
2022/06/06 15:15:53;;;;;;;4.00;2.33;;;17.20;99.90;;;;;;5044507;28;20071;-89
2022/06/06 15:18:23;;;;;;;4.13;2.72;;;17.10;99.90;;;;;;5029604;28;20021;-86
2022/06/06 15:20:52;;;;;;;5.38;2.55;;;17.00;99.90;;;;;;5053460;28;20021;-86
2022/06/06 15:23:57;;;;;;;5.03;2.80;;;17.00;99.90;;;;;;5035492;28;20060;-86
2022/06/06 15:26:32;;;;;;;5.30;2.97;;;16.90;99.90;;;;;;5031218;28;20048;-87
2022/06/06 15:29:17;;;;;;;4.10;2.58;;;16.90;99.90;;;;;;5028088;28;20497;-88
2022/06/06 15:31:52;;;;;;;5.13;3.83;;;16.90;99.90;;;;;;5022965;28;20061;-88
2022/06/06 15:39:45;;;;;;;6.57;4.20;;;16.80;99.90;;;;;;5008702;28;20049;-89
2022/06/06 15:42:33;;;;;;;5.60;4.05;;;16.90;99.90;;;;;;5000150;28;20022;-89
2022/06/06 15:45:28;;;;;;;6.57;4.38;;;16.90;99.90;;;;;;4998656;28;20006;-88
2022/06/06 15:48:26;;;;;;;4.95;2.30;;;16.90;99.90;;;;;;4992382;28;20388;-88
2022/06/06 15:51:15;;;;;;;4.28;1.60;;;16.90;99.90;;;;;;4991613;28;20031;-88
2022/06/06 15:53:40;;;;;;;2.50;1.20;;;16.90;99.90;;;;;;4989989;28;20110;-88
2022/06/06 15:56:24;;;;;;;1.83;0.90;;;16.80;99.90;;;;;;4996088;28;20081;-87
2022/06/06 15:59:28;;;;;;;1.73;0.75;;;16.80;99.90;;;;;;4996634;28;20022;-86
2022/06/06 16:02:33;;;;;;;1.65;0.85;;;16.80;99.90;;;;;;4990687;28;20029;-87
2022/06/06 16:05:23;;;;;;;3.50;0.90;;;16.80;99.90;;;;;;4996920;28;20021;-87
2022/06/06 16:07:49;;;;;;;1.08;0.55;;;16.70;99.90;;;;;;4997114;28;20030;-87
2022/06/06 16:10:34;;;;;;;1.67;0.90;;;16.60;99.90;;;;;;5000453;28;20097;-87
2022/06/06 16:13:40;;;;;;;2.00;0.70;;;16.50;99.90;;;;;;4989487;28;20085;-87
2022/06/06 16:16:27;;;;;;;1.33;0.70;;;16.50;99.90;;;;;;4997601;28;20017;-86
2022/06/06 16:19:11;;;;;;;2.13;0.60;;;16.40;99.90;;;;;;4997164;28;20030;-87
2022/06/06 16:22:07;;;;;;;2.22;0.60;;;16.30;99.90;;;;;;4997436;28;20022;-87
2022/06/06 16:25:13;;;;;;;1.85;0.75;;;16.20;99.90;;;;;;4995611;28;20026;-86
2022/06/06 16:27:46;;;;;;;1.58;0.55;;;16.10;99.90;;;;;;4993478;28;20463;-87
2022/06/06 16:30:46;;;;;;;0.80;0.60;;;15.90;99.90;;;;;;4988982;28;20050;-88
2022/06/06 16:33:18;;;;;;;0.70;0.63;;;15.90;99.90;;;;;;4999148;28;20055;-88
2022/06/06 16:35:57;;;;;;;1.17;0.70;;;15.80;99.90;;;;;;4998069;28;20028;-88
2022/06/06 16:38:44;;;;;;;1.55;0.90;;;15.80;99.90;;;;;;4999326;28;20044;-88
2022/06/06 16:41:12;;;;;;;2.38;1.10;;;15.80;99.90;;;;;;5014303;28;20053;-85
2022/06/06 16:50:42;;;;;;;2.88;1.70;;;15.70;99.90;;;;;;5018786;28;20061;-85
2022/06/06 16:53:31;;;;;;;3.03;1.65;;;15.50;99.90;;;;;;4999483;28;20022;-87
2022/06/06 16:56:13;;;;;;;4.63;2.45;;;15.50;99.90;;;;;;4999853;28;20495;-86
2022/06/06 16:58:58;;;;;;;5.50;2.45;;;15.50;99.90;;;;;;5002045;28;20025;-87
2022/06/06 17:02:11;;;;;;;3.40;1.80;;;15.60;99.90;;;;;;4998402;28;20034;-87
2022/06/06 17:08:37;;;;;;;3.15;2.00;;;15.50;99.90;;;;;;4932427;29;20039;-87
2022/06/06 17:11:39;;;;;;;3.03;1.98;;;15.50;99.90;;;;;;4917254;29;20028;-87
2022/06/06 17:14:19;;;;;;;4.68;2.10;;;15.50;99.90;;;;;;4922652;29;20154;-88
2022/06/06 17:16:57;;;;;;;2.15;1.67;;;15.50;99.90;;;;;;4922406;29;20174;-86
2022/06/06 17:19:40;;;;;;;5.00;1.80;;;15.50;99.90;;;;;;4929038;29;20043;-87
2022/06/06 17:22:32;;;;;;;3.10;1.40;;;15.50;99.90;;;;;;4926472;29;20452;-87
2022/06/06 17:25:37;;;;;;;3.53;1.20;;;15.50;99.90;;;;;;4956469;28;20028;-87
2022/06/06 17:28:12;;;;;;;2.30;1.35;;;15.50;99.90;;;;;;4943224;28;20026;-87
2022/06/06 17:30:59;;;;;;;2.47;1.15;;;15.50;99.90;;;;;;4940382;28;20468;-87
2022/06/06 17:33:30;;;;;;;3.55;1.30;;;15.50;99.90;;;;;;4942922;29;20385;-88
2022/06/06 17:36:21;;;;;;;4.53;1.55;;;15.50;99.90;;;;;;4975608;28;20535;-89
2022/06/06 17:39:24;;;;;;;3.60;1.77;;;15.50;99.90;;;;;;5001730;28;20058;-89
2022/06/06 17:42:09;;;;;;;2.05;1.42;;;15.50;99.90;;;;;;4996970;28;20042;-89
2022/06/06 17:44:49;;;;;;;3.05;2.15;;;15.50;99.90;;;;;;5013429;28;20033;-89
2022/06/06 17:47:42;;;;;;;3.70;1.77;;;15.40;99.90;;;;;;4993068;28;20040;-90